Time,TemperatureF,DewpointF,PressureIn,WindDirection,WindDirectionDegrees,WindSpeedMPH,WindSpeedGustMPH,Humidity,HourlyPrecipIn,Conditions,Clouds,dailyrainin,SoftwareType,DateUTC
2013-01-17 00:06:00,65.3,52.9,30.03,North,-999,0.0,0.0,64,0.00,,,-99.99,FreeWX 2.05,2013-01-17 05:06:00,
2013-01-17 00:16:00,65.1,53.1,30.03,North,-999,0.0,0.0,65,0.00,,,-99.99,FreeWX 2.05,2013-01-17 05:16:00,
2013-01-17 00:26:00,65.1,53.4,30.03,North,-999,0.0,0.0,66,0.00,,,-99.99,FreeWX 2.05,2013-01-17 05:26:00,
2013-01-17 00:36:00,64.8,53.6,30.03,North,-999,0.0,0.0,67,0.00,,,-99.99,FreeWX 2.05,2013-01-17 05:36:00,
2013-01-17 00:46:00,64.8,53.6,30.03,North,-999,0.0,0.0,67,0.00,,,-99.99,FreeWX 2.05,2013-01-17 05:46:00,
2013-01-17 00:56:00,64.6,53.8,30.03,North,-999,0.0,0.0,68,0.00,,,-99.99,FreeWX 2.05,2013-01-17 05:56:00,
2013-01-17 01:06:00,64.6,53.8,30.03,North,-999,0.0,0.0,68,0.00,,,-99.99,FreeWX 2.05,2013-01-17 06:06:00,
2013-01-17 01:16:00,64.4,54.0,30.03,North,-999,0.0,0.0,69,0.00,,,-99.99,FreeWX 2.05,2013-01-17 06:16:00,
2013-01-17 01:26:00,64.4,54.3,30.03,North,-999,0.0,0.0,70,0.00,,,-99.99,FreeWX 2.05,2013-01-17 06:26:00,
2013-01-17 01:36:00,64.4,54.3,30.03,North,-999,0.0,0.0,70,0.00,,,-99.99,FreeWX 2.05,2013-01-17 06:36:00,
2013-01-17 01:46:00,64.4,54.3,30.03,North,-999,0.0,0.0,70,0.00,,,-99.99,FreeWX 2.05,2013-01-17 06:46:00,
2013-01-17 01:56:00,64.2,54.7,30.03,North,-999,0.0,0.0,71,0.00,,,-99.99,FreeWX 2.05,2013-01-17 06:56:00,
2013-01-17 02:06:00,64.2,54.7,30.03,North,-999,0.0,0.0,71,0.00,,,-99.99,FreeWX 2.05,2013-01-17 07:06:00,
2013-01-17 02:16:00,64.2,54.7,30.03,North,-999,0.0,0.0,71,0.00,,,-99.99,FreeWX 2.05,2013-01-17 07:16:00,
2013-01-17 02:26:00,64.2,55.0,30.03,North,-999,0.0,0.0,72,0.00,,,-99.99,FreeWX 2.05,2013-01-17 07:26:00,
2013-01-17 02:36:00,64.2,55.0,30.03,North,-999,0.0,0.0,72,0.00,,,-99.99,FreeWX 2.05,2013-01-17 07:36:00,
2013-01-17 02:46:00,64.2,55.0,30.03,North,-999,0.0,0.0,72,0.00,,,-99.99,FreeWX 2.05,2013-01-17 07:46:00,
2013-01-17 02:56:00,64.0,54.9,30.03,North,-999,0.0,0.0,72,0.00,,,-99.99,FreeWX 2.05,2013-01-17 07:56:00,
2013-01-17 03:06:00,64.0,55.2,30.03,North,-999,0.0,0.0,73,0.00,,,-99.99,FreeWX 2.05,2013-01-17 08:06:00,
2013-01-17 03:16:00,64.0,55.2,30.03,North,-999,0.0,0.0,73,0.00,,,-99.99,FreeWX 2.05,2013-01-17 08:16:00,
2013-01-17 03:26:00,63.9,55.0,30.03,North,-999,0.0,0.0,73,0.00,,,-99.99,FreeWX 2.05,2013-01-17 08:26:00,
2013-01-17 03:36:00,64.0,55.6,30.03,North,-999,0.0,0.0,74,0.00,,,-99.99,FreeWX 2.05,2013-01-17 08:36:00,
2013-01-17 03:46:00,64.0,55.6,30.03,North,-999,0.0,0.0,74,0.00,,,-99.99,FreeWX 2.05,2013-01-17 08:46:00,
2013-01-17 03:56:00,64.2,56.1,30.03,North,-999,0.0,0.0,75,0.00,,,-99.99,FreeWX 2.05,2013-01-17 08:56:00,
2013-01-17 04:06:00,64.2,56.1,30.03,North,-999,0.0,0.0,75,0.00,,,-99.99,FreeWX 2.05,2013-01-17 09:06:00,
2013-01-17 04:16:00,64.2,56.1,30.03,North,-999,0.0,0.0,75,0.00,,,-99.99,FreeWX 2.05,2013-01-17 09:16:00,
2013-01-17 04:26:00,64.2,56.5,30.03,North,-999,0.0,0.0,76,0.00,,,-99.99,FreeWX 2.05,2013-01-17 09:26:00,
2013-01-17 04:36:00,64.2,56.5,30.03,North,-999,0.0,0.0,76,0.00,,,-99.99,FreeWX 2.05,2013-01-17 09:36:00,
2013-01-17 04:46:00,64.2,56.5,30.00,North,-999,0.0,0.0,76,0.00,,,-99.99,FreeWX 2.05,2013-01-17 09:46:00,
2013-01-17 04:56:00,64.2,56.8,30.00,North,-999,0.0,0.0,77,0.00,,,-99.99,FreeWX 2.05,2013-01-17 09:56:00,
2013-01-17 05:06:00,64.4,57.0,30.00,North,-999,0.0,0.0,77,0.00,,,-99.99,FreeWX 2.05,2013-01-17 10:06:00,
2013-01-17 05:16:00,64.4,57.0,30.00,North,-999,0.0,0.0,77,0.00,,,-99.99,FreeWX 2.05,2013-01-17 10:16:00,
2013-01-17 05:26:00,64.8,57.7,30.00,North,-999,0.0,0.0,78,0.00,,,-99.99,FreeWX 2.05,2013-01-17 10:26:00,
2013-01-17 05:36:00,65.1,58.1,30.00,North,-999,0.0,0.0,78,0.00,,,-99.99,FreeWX 2.05,2013-01-17 10:36:00,
2013-01-17 05:46:00,66.0,59.4,30.00,North,-999,0.0,0.0,79,0.00,,,-99.99,FreeWX 2.05,2013-01-17 10:46:00,
2013-01-17 05:56:00,66.0,59.0,30.00,North,-999,0.0,2.7,78,0.00,,,-99.99,FreeWX 2.05,2013-01-17 10:56:00,
2013-01-17 06:06:00,66.0,59.0,30.00,North,-999,0.0,3.1,78,0.00,,,-99.99,FreeWX 2.05,2013-01-17 11:06:00,
2013-01-17 06:16:00,65.8,58.8,30.00,North,-999,0.0,3.1,78,0.00,,,-99.99,FreeWX 2.05,2013-01-17 11:16:00,
2013-01-17 06:26:00,66.0,59.4,30.03,North,-999,0.0,0.0,79,0.00,,,-99.99,FreeWX 2.05,2013-01-17 11:26:00,
2013-01-17 06:36:00,66.4,60.1,30.03,North,-999,0.0,0.0,80,0.00,,,-99.99,FreeWX 2.05,2013-01-17 11:36:00,
2013-01-17 06:46:00,66.6,60.3,30.00,North,-999,0.0,0.0,80,0.00,,,-99.99,FreeWX 2.05,2013-01-17 11:46:00,
2013-01-17 06:56:00,66.2,59.5,30.03,North,-999,0.0,0.0,79,0.00,,,-99.99,FreeWX 2.05,2013-01-17 11:56:00,
2013-01-17 07:06:00,65.7,59.0,30.03,North,-999,0.0,0.0,79,0.00,,,-99.99,FreeWX 2.05,2013-01-17 12:06:00,
2013-01-17 07:16:00,65.5,59.2,30.03,North,-999,0.0,0.0,80,0.00,,,-99.99,FreeWX 2.05,2013-01-17 12:16:00,
2013-01-17 07:26:00,65.5,59.2,30.03,North,-999,0.0,0.0,80,0.00,,,-99.99,FreeWX 2.05,2013-01-17 12:26:00,
2013-01-17 07:36:00,65.5,59.2,30.03,North,-999,0.0,0.0,80,0.00,,,-99.99,FreeWX 2.05,2013-01-17 12:36:00,
2013-01-17 07:46:00,65.8,59.9,30.03,North,-999,0.0,0.0,81,0.00,,,-99.99,FreeWX 2.05,2013-01-17 12:46:00,
2013-01-17 07:56:00,66.2,60.3,30.03,North,-999,0.0,0.0,81,0.00,,,-99.99,FreeWX 2.05,2013-01-17 12:56:00,
2013-01-17 08:06:00,66.7,61.0,30.03,North,-999,0.0,0.0,82,0.00,,,-99.99,FreeWX 2.05,2013-01-17 13:06:00,
2013-01-17 08:16:00,67.1,61.3,30.03,North,-999,0.0,2.7,82,0.00,,,-99.99,FreeWX 2.05,2013-01-17 13:16:00,
2013-01-17 08:26:00,68.0,62.2,30.03,North,-999,0.0,3.6,82,0.00,,,-99.99,FreeWX 2.05,2013-01-17 13:26:00,
2013-01-17 08:36:00,68.9,63.5,30.03,NE,34,2.0,5.4,83,0.00,,,-99.99,FreeWX 2.05,2013-01-17 13:36:00,
2013-01-17 08:46:00,69.6,64.2,30.03,NNE,18,3.0,7.8,83,0.00,,,-99.99,FreeWX 2.05,2013-01-17 13:46:00,
2013-01-17 08:56:00,70.0,64.9,30.06,NE,40,4.0,7.4,84,0.00,,,-99.99,FreeWX 2.05,2013-01-17 13:56:00,
2013-01-17 09:06:00,70.2,65.1,30.06,NE,39,4.0,8.3,84,0.00,,,-99.99,FreeWX 2.05,2013-01-17 14:06:00,
2013-01-17 09:16:00,70.3,65.7,30.06,NNE,32,5.0,11.0,85,0.00,,,-99.99,FreeWX 2.05,2013-01-17 14:16:00,
2013-01-17 09:26:00,69.4,64.4,30.06,ENE,69,6.0,12.5,84,0.00,,,-99.99,FreeWX 2.05,2013-01-17 14:26:00,
2013-01-17 09:36:00,68.5,63.5,30.06,East,79,5.0,12.5,84,0.00,,,-99.99,FreeWX 2.05,2013-01-17 14:36:00,
2013-01-17 09:46:00,68.2,63.5,30.09,East,99,6.0,12.5,85,0.00,,,-99.99,FreeWX 2.05,2013-01-17 14:46:00,
2013-01-17 09:56:00,67.8,63.1,30.09,ESE,113,4.0,14.8,85,0.00,,,-99.99,FreeWX 2.05,2013-01-17 14:56:00,
2013-01-17 10:06:00,67.6,63.3,30.09,ESE,106,4.0,12.5,86,0.00,,,-99.99,FreeWX 2.05,2013-01-17 15:06:00,
2013-01-17 10:16:00,67.3,63.0,30.09,ESE,104,5.0,14.3,86,0.00,,,-99.99,FreeWX 2.05,2013-01-17 15:16:00,
2013-01-17 10:26:00,67.3,63.0,30.09,East,94,4.0,8.3,86,0.00,,,-99.99,FreeWX 2.05,2013-01-17 15:26:00,
2013-01-17 10:36:00,67.3,63.0,30.09,ESE,115,2.0,8.3,86,0.00,,,-99.99,FreeWX 2.05,2013-01-17 15:36:00,
2013-01-17 10:46:00,67.1,62.8,30.09,East,101,3.0,10.5,86,0.00,,,-99.99,FreeWX 2.05,2013-01-17 15:46:00,
2013-01-17 10:56:00,66.9,62.6,30.09,ESE,106,4.0,9.6,86,0.00,,,-99.99,FreeWX 2.05,2013-01-17 15:56:00,
2013-01-17 11:06:00,66.7,62.4,30.09,ESE,102,4.0,12.5,86,0.00,,,-99.99,FreeWX 2.05,2013-01-17 16:06:00,
2013-01-17 11:16:00,66.6,62.2,30.09,East,99,4.0,13.0,86,0.00,,,-99.99,FreeWX 2.05,2013-01-17 16:16:00,
2013-01-17 11:26:00,66.4,62.1,30.09,ESE,114,4.0,12.1,86,0.00,,,-99.99,FreeWX 2.05,2013-01-17 16:26:00,
2013-01-17 11:36:00,66.4,62.4,30.09,ESE,109,4.0,12.5,87,0.00,,,-99.99,FreeWX 2.05,2013-01-17 16:36:00,
2013-01-17 11:46:00,66.2,62.2,30.09,SE,129,4.0,11.2,87,0.00,,,-99.99,FreeWX 2.05,2013-01-17 16:46:00,
2013-01-17 11:56:00,66.4,62.4,30.09,East,95,4.0,14.8,87,0.00,,,-99.99,FreeWX 2.05,2013-01-17 16:56:00,
2013-01-17 12:06:00,66.2,62.2,30.09,ESE,113,3.0,9.2,87,0.00,,,-99.99,FreeWX 2.05,2013-01-17 17:06:00,
2013-01-17 12:16:00,65.7,61.3,30.09,East,101,5.0,11.6,86,0.00,,,-99.99,FreeWX 2.05,2013-01-17 17:16:00,
2013-01-17 12:26:00,65.1,61.2,30.09,ESE,112,5.0,12.5,87,0.00,,,-99.99,FreeWX 2.05,2013-01-17 17:26:00,
2013-01-17 12:36:00,64.8,60.8,30.09,ESE,106,4.0,13.4,87,0.00,,,-99.99,FreeWX 2.05,2013-01-17 17:36:00,
2013-01-17 12:46:00,64.4,60.4,30.09,SE,129,5.0,12.5,87,0.00,,,-99.99,FreeWX 2.05,2013-01-17 17:46:00,
2013-01-17 12:56:00,64.0,60.1,30.06,ESE,119,5.0,12.5,87,0.00,,,-99.99,FreeWX 2.05,2013-01-17 17:56:00,
2013-01-17 13:06:00,63.7,59.7,30.06,ESE,113,5.0,13.9,87,0.00,,,-99.99,FreeWX 2.05,2013-01-17 18:06:00,
2013-01-17 13:16:00,63.1,59.2,30.06,ESE,112,5.0,14.8,87,0.00,,,-99.99,FreeWX 2.05,2013-01-17 18:16:00,
2013-01-17 13:26:00,62.6,58.3,30.06,ESE,121,6.0,14.3,86,0.00,,,-99.99,FreeWX 2.05,2013-01-17 18:26:00,
2013-01-17 13:36:00,62.2,57.9,30.06,ESE,106,5.0,16.8,86,0.00,,,-99.99,FreeWX 2.05,2013-01-17 18:36:00,
2013-01-17 13:46:00,61.9,57.6,30.06,ESE,114,5.0,12.1,86,0.00,,,-99.99,FreeWX 2.05,2013-01-17 18:46:00,
2013-01-17 13:56:00,61.5,57.2,30.06,ESE,113,6.0,13.4,86,0.00,,,-99.99,FreeWX 2.05,2013-01-17 18:56:00,
2013-01-17 14:06:00,61.3,57.2,30.06,ESE,104,6.0,15.9,86,0.00,,,-99.99,FreeWX 2.05,2013-01-17 19:06:00,
2013-01-17 14:17:00,61.0,56.5,30.06,ESE,110,5.0,14.3,85,0.00,,,-99.99,FreeWX 2.05,2013-01-17 19:17:00,
2013-01-17 14:27:00,61.3,57.2,30.06,ESE,112,6.0,11.0,86,0.00,,,-99.99,FreeWX 2.05,2013-01-17 19:27:00,
2013-01-17 14:37:00,61.5,57.0,30.06,ESE,111,6.0,13.0,85,0.00,,,-99.99,FreeWX 2.05,2013-01-17 19:37:00,
2013-01-17 14:47:00,61.9,57.0,30.06,ESE,107,5.0,11.2,84,0.00,,,-99.99,FreeWX 2.05,2013-01-17 19:47:00,
2013-01-17 14:57:00,62.1,56.5,30.06,ESE,111,4.0,10.5,82,0.00,,,-99.99,FreeWX 2.05,2013-01-17 19:57:00,
2013-01-17 15:07:00,62.1,55.8,30.06,ESE,117,4.0,12.5,80,0.00,,,-99.99,FreeWX 2.05,2013-01-17 20:07:00,
2013-01-17 15:17:00,62.2,55.6,30.06,East,87,5.0,11.2,79,0.00,,,-99.99,FreeWX 2.05,2013-01-17 20:17:00,
2013-01-17 15:27:00,61.9,54.1,30.06,ESE,103,6.0,16.8,76,0.00,,,-99.99,FreeWX 2.05,2013-01-17 20:27:00,
2013-01-17 15:37:00,61.9,52.7,30.06,East,100,5.0,15.9,72,0.00,,,-99.99,FreeWX 2.05,2013-01-17 20:37:00,
2013-01-17 15:47:00,61.5,50.5,30.06,SE,126,6.0,14.8,67,0.00,,,-99.99,FreeWX 2.05,2013-01-17 20:47:00,
2013-01-17 15:57:00,61.9,49.1,30.09,ESE,122,5.0,14.3,63,0.00,,,-99.99,FreeWX 2.05,2013-01-17 20:57:00,
2013-01-17 16:07:00,62.1,48.9,30.09,East,98,4.0,13.0,62,0.00,,,-99.99,FreeWX 2.05,2013-01-17 21:07:00,
2013-01-17 16:17:00,62.1,47.5,30.09,East,101,5.0,11.6,59,0.00,,,-99.99,FreeWX 2.05,2013-01-17 21:17:00,
2013-01-17 16:27:00,62.2,46.4,30.09,ESE,102,6.0,14.3,56,0.00,,,-99.99,FreeWX 2.05,2013-01-17 21:27:00,
2013-01-17 16:37:00,61.9,44.6,30.09,ESE,117,4.0,12.5,53,0.00,,,-99.99,FreeWX 2.05,2013-01-17 21:37:00,
2013-01-17 16:47:00,61.5,42.6,30.09,ESE,105,4.0,13.4,50,0.00,,,-99.99,FreeWX 2.05,2013-01-17 21:47:00,
2013-01-17 16:57:00,61.7,42.3,30.09,ESE,105,5.0,14.3,49,0.00,,,-99.99,FreeWX 2.05,2013-01-17 21:57:00,
2013-01-17 17:07:00,61.7,40.6,30.09,ESE,104,5.0,14.3,46,0.00,,,-99.99,FreeWX 2.05,2013-01-17 22:07:00,
2013-01-17 17:17:00,61.5,39.4,30.09,ESE,104,5.0,13.4,44,0.00,,,-99.99,FreeWX 2.05,2013-01-17 22:17:00,
2013-01-17 17:27:00,61.2,37.2,30.09,ESE,103,5.0,15.2,41,0.00,,,-99.99,FreeWX 2.05,2013-01-17 22:27:00,
2013-01-17 17:37:00,60.8,36.3,30.09,ESE,109,4.0,10.1,40,0.00,,,-99.99,FreeWX 2.05,2013-01-17 22:37:00,
2013-01-17 17:47:00,60.6,35.6,30.09,ESE,111,5.0,11.6,39,0.00,,,-99.99,FreeWX 2.05,2013-01-17 22:47:00,
2013-01-17 17:57:00,60.6,35.6,30.09,ESE,104,3.0,11.2,39,0.00,,,-99.99,FreeWX 2.05,2013-01-17 22:57:00,
2013-01-17 18:07:00,60.6,36.1,30.09,ESE,105,4.0,11.0,40,0.00,,,-99.99,FreeWX 2.05,2013-01-17 23:07:00,
2013-01-17 18:17:00,60.8,36.3,30.09,ESE,102,4.0,10.5,40,0.00,,,-99.99,FreeWX 2.05,2013-01-17 23:17:00,
2013-01-17 18:27:00,60.6,36.1,30.12,ESE,104,4.0,16.3,40,0.00,,,-99.99,FreeWX 2.05,2013-01-17 23:27:00,
2013-01-17 18:37:00,60.8,36.3,30.12,ESE,110,5.0,12.5,40,0.00,,,-99.99,FreeWX 2.05,2013-01-17 23:37:00,
2013-01-17 18:47:00,61.0,36.5,30.12,ESE,111,6.0,16.3,40,0.00,,,-99.99,FreeWX 2.05,2013-01-17 23:47:00,
2013-01-17 18:57:00,61.0,37.0,30.12,SE,129,5.0,11.2,41,0.00,,,-99.99,FreeWX 2.05,2013-01-17 23:57:00,
2013-01-17 19:07:00,60.6,36.9,30.12,ESE,120,4.0,10.5,41,0.00,,,-99.99,FreeWX 2.05,2013-01-18 00:07:00,
2013-01-17 19:17:00,60.4,37.2,30.12,ESE,103,5.0,13.4,42,0.00,,,-99.99,FreeWX 2.05,2013-01-18 00:17:00,
2013-01-17 19:27:00,60.1,36.3,30.12,ESE,119,4.0,11.2,41,0.00,,,-99.99,FreeWX 2.05,2013-01-18 00:27:00,
2013-01-17 19:37:00,60.1,36.3,30.12,SE,128,3.0,8.7,41,0.00,,,-99.99,FreeWX 2.05,2013-01-18 00:37:00,
2013-01-17 19:47:00,59.9,35.6,30.12,ESE,122,5.0,13.0,40,0.00,,,-99.99,FreeWX 2.05,2013-01-18 00:47:00,
2013-01-17 19:57:00,59.9,35.6,30.15,SE,125,5.0,16.3,40,0.00,,,-99.99,FreeWX 2.05,2013-01-18 00:57:00,
2013-01-17 20:07:00,59.7,36.0,30.15,SE,146,4.0,14.8,41,0.00,,,-99.99,FreeWX 2.05,2013-01-18 01:07:00,
2013-01-17 20:17:00,59.4,35.6,30.15,SSE,153,4.0,11.2,41,0.00,,,-99.99,FreeWX 2.05,2013-01-18 01:17:00,
2013-01-17 20:27:00,59.5,35.8,30.15,SE,124,5.0,16.3,41,0.00,,,-99.99,FreeWX 2.05,2013-01-18 01:27:00,
2013-01-17 20:37:00,59.4,35.1,30.15,SSE,147,4.0,15.2,40,0.00,,,-99.99,FreeWX 2.05,2013-01-18 01:37:00,
2013-01-17 20:47:00,59.4,35.6,30.15,SE,131,4.0,15.2,41,0.00,,,-99.99,FreeWX 2.05,2013-01-18 01:47:00,
2013-01-17 20:57:00,59.0,35.4,30.15,SE,145,4.0,15.4,41,0.00,,,-99.99,FreeWX 2.05,2013-01-18 01:57:00,
2013-01-17 21:07:00,59.0,35.4,30.15,SE,128,4.0,15.2,41,0.00,,,-99.99,FreeWX 2.05,2013-01-18 02:07:00,
2013-01-17 21:17:00,59.0,36.0,30.15,SE,124,4.0,12.5,42,0.00,,,-99.99,FreeWX 2.05,2013-01-18 02:17:00,
2013-01-17 21:27:00,58.5,34.9,30.15,SSE,148,4.0,11.0,41,0.00,,,-99.99,FreeWX 2.05,2013-01-18 02:27:00,
2013-01-17 21:37:00,58.1,34.5,30.15,SSE,155,3.0,13.0,41,0.00,,,-99.99,FreeWX 2.05,2013-01-18 02:37:00,
2013-01-17 21:47:00,58.1,34.5,30.15,SSE,153,4.0,12.5,41,0.00,,,-99.99,FreeWX 2.05,2013-01-18 02:47:00,
2013-01-17 21:57:00,58.1,34.5,30.15,ESE,116,5.0,11.0,41,0.00,,,-99.99,FreeWX 2.05,2013-01-18 02:57:00,
2013-01-17 22:07:00,58.1,34.5,30.15,SE,137,4.0,11.0,41,0.00,,,-99.99,FreeWX 2.05,2013-01-18 03:07:00,
2013-01-17 22:17:00,57.9,34.3,30.18,SSE,154,5.0,14.8,41,0.00,,,-99.99,FreeWX 2.05,2013-01-18 03:17:00,
2013-01-17 22:27:00,57.6,33.4,30.15,SSE,148,4.0,11.2,40,0.00,,,-99.99,FreeWX 2.05,2013-01-18 03:27:00,
2013-01-17 22:37:00,57.6,33.4,30.15,SE,144,4.0,15.2,40,0.00,,,-99.99,FreeWX 2.05,2013-01-18 03:37:00,
2013-01-17 22:47:00,57.2,33.1,30.18,SSE,147,4.0,12.5,40,0.00,,,-99.99,FreeWX 2.05,2013-01-18 03:47:00,
2013-01-17 22:57:00,56.8,32.7,30.18,South,169,4.0,13.9,40,0.00,,,-99.99,FreeWX 2.05,2013-01-18 03:57:00,
2013-01-17 23:07:00,56.3,32.4,30.18,SSE,154,4.0,12.1,40,0.00,,,-99.99,FreeWX 2.05,2013-01-18 04:07:00,
2013-01-17 23:17:00,56.1,32.2,30.18,SSE,158,4.0,11.2,40,0.00,,,-99.99,FreeWX 2.05,2013-01-18 04:17:00,
2013-01-17 23:27:00,55.9,32.0,30.18,SSE,160,3.0,11.6,40,0.00,,,-99.99,FreeWX 2.05,2013-01-18 04:27:00,
2013-01-17 23:37:00,55.8,31.8,30.18,SSE,165,3.0,9.6,40,0.00,,,-99.99,FreeWX 2.05,2013-01-18 04:37:00,
2013-01-17 23:47:00,55.4,31.5,30.18,South,189,2.0,9.2,40,0.00,,,-99.99,FreeWX 2.05,2013-01-18 04:47:00,
2013-01-17 23:57:00,54.9,31.6,30.18,SSW,199,3.0,9.6,41,0.00,,,-99.99,FreeWX 2.05,2013-01-18 04:57:00,